Time;durP1;ratioP1;P1;durP2;ratioP2;P2;SDS_P1;SDS_P2;PMS_P1;PMS_P2;Temp;Humidity;BMP_temperature;BMP_pressure;BME280_temperature;BME280_humidity;BME280_pressure;Samples;Min_cycle;Max_cycle;Signal;HPM_P1;HPM_P2
2022/10/04 00:01:57;;;;;;;;;;;;;;;17.79;51.41;100659.44;4950265;29;1910;-53
2022/10/04 00:04:26;;;;;;;;;;;;;;;17.93;51.32;100656.06;4935381;29;1375;-50
2022/10/04 00:06:54;;;;;;;;;;;;;;;17.49;49.85;100646.69;4923375;29;1040;-51
2022/10/04 00:09:22;;;;;;;;;;;;;;;17.31;48.68;100648.16;4923406;29;1223;-50
2022/10/04 00:11:47;;;;;;;;;;;;;;;18.22;50.27;100647.88;4940768;29;1126;-52
2022/10/04 00:14:18;;;;;;;;;;;;;;;17.53;50.00;100652.44;4923142;29;1159;-50
2022/10/04 00:16:43;;;;;;;;;;;;;;;18.34;50.34;100664.03;4940353;29;1107;-48
2022/10/04 00:19:15;;;;;;;;;;;;;;;15.18;58.02;100663.94;4940625;29;1131;-52
2022/10/04 00:21:53;;;;;;;;;;;;;;;17.10;53.78;100661.97;4953311;29;1971;-51
2022/10/04 00:24:22;;;;;;;;;;;;;;;17.27;54.51;100661.63;4923257;29;1219;-51
2022/10/04 00:26:48;;;;;;;;;;;;;;;16.06;58.80;100660.41;4940087;29;1123;-52
2022/10/04 00:29:32;;;;;;;;;;;;;;;18.80;52.69;100660.84;4922790;29;1312;-53
2022/10/04 00:32:07;;;;;;;;;;;;;;;14.81;61.26;100662.13;4939980;29;1150;-49
2022/10/04 00:34:36;;;;;;;;;;;;;;;17.28;55.82;100654.22;4939589;29;1229;-49
2022/10/04 00:37:02;;;;;;;;;;;;;;;17.99;53.90;100654.91;4940009;29;1127;-50
2022/10/04 00:39:30;;;;;;;;;;;;;;;17.57;52.18;100651.59;4939861;29;907;-53
2022/10/04 00:41:57;;;;;;;;;;;;;;;17.19;50.57;100644.91;4939370;29;1891;-51
2022/10/04 00:44:25;;;;;;;;;;;;;;;18.45;52.74;100646.31;4923293;29;1203;-50
2022/10/04 00:46:51;;;;;;;;;;;;;;;17.69;51.84;100645.75;4922302;29;1183;-53
2022/10/04 00:49:17;;;;;;;;;;;;;;;17.42;50.33;100651.69;4922623;29;1143;-51
2022/10/04 00:51:46;;;;;;;;;;;;;;;17.67;50.71;100653.47;4922611;29;1305;-52
2022/10/04 00:54:13;;;;;;;;;;;;;;;18.06;51.76;100641.69;4939602;29;1159;-53
2022/10/04 00:56:43;;;;;;;;;;;;;;;17.69;50.02;100651.25;4929412;29;1182;-52
2022/10/04 00:59:12;;;;;;;;;;;;;;;17.43;49.03;100637.66;4939800;29;1177;-53
2022/10/04 01:01:37;;;;;;;;;;;;;;;18.37;50.41;100646.94;4951438;29;1914;-49
2022/10/04 01:04:03;;;;;;;;;;;;;;;17.58;50.22;100653.22;4938998;29;918;-54
2022/10/04 01:06:29;;;;;;;;;;;;;;;17.50;48.68;100645.59;4939471;29;1225;-52
2022/10/04 01:08:55;;;;;;;;;;;;;;;18.33;49.99;100648.63;4922652;29;1139;-49
2022/10/04 01:11:25;;;;;;;;;;;;;;;17.63;49.84;100655.13;4938992;29;1127;-52
2022/10/04 01:14:11;;;;;;;;;;;;;;;17.35;48.85;100654.72;4939443;29;1159;-53
2022/10/04 01:16:36;;;;;;;;;;;;;;;18.05;49.73;100651.03;4951640;29;1430;-51
2022/10/04 01:19:21;;;;;;;;;;;;;;;17.54;49.13;100652.13;4939113;29;1222;-51
2022/10/04 01:21:46;;;;;;;;;;;;;;;18.44;49.71;100663.94;4939160;29;1915;-50
2022/10/04 01:24:11;;;;;;;;;;;;;;;14.91;57.30;100661.34;4921916;29;1221;-54
2022/10/04 01:26:41;;;;;;;;;;;;;;;16.90;53.02;100660.09;4938434;29;1127;-49
2022/10/04 01:29:38;;;;;;;;;;;;;;;17.96;51.42;100655.50;4939044;29;1182;-52
2022/10/04 01:32:04;;;;;;;;;;;;;;;17.37;50.07;100659.94;4903225;29;1469;-52
2022/10/04 01:34:29;;;;;;;;;;;;;;;17.16;49.17;100661.94;4938602;29;1150;-51
2022/10/04 01:36:56;;;;;;;;;;;;;;;18.07;50.43;100668.06;4922019;29;1175;-52
2022/10/04 01:39:22;;;;;;;;;;;;;;;17.48;49.56;100663.47;4921818;29;1143;-48
2022/10/04 01:41:50;;;;;;;;;;;;;;;17.28;49.24;100668.75;4921483;29;1914;-52
2022/10/04 01:44:23;;;;;;;;;;;;;;;17.84;50.01;100677.00;4938787;29;1229;-52
2022/10/04 01:46:49;;;;;;;;;;;;;;;17.44;48.91;100672.25;4922202;29;1207;-52
2022/10/04 01:49:18;;;;;;;;;;;;;;;17.26;48.14;100675.63;4921862;29;1143;-52
2022/10/04 01:51:50;;;;;;;;;;;;;;;18.50;48.99;100683.19;4921940;29;1112;-53
2022/10/04 01:54:16;;;;;;;;;;;;;;;17.67;49.13;100672.72;4925271;29;1096;-52
2022/10/04 01:56:46;;;;;;;;;;;;;;;17.42;48.24;100682.72;4929236;29;1135;-50
2022/10/04 01:59:17;;;;;;;;;;;;;;;18.20;49.15;100682.28;4926737;29;1134;-50
2022/10/04 02:01:43;;;;;;;;;;;;;;;17.60;49.50;100683.22;4909765;29;1975;-50
2022/10/04 02:04:10;;;;;;;;;;;;;;;18.21;49.26;100694.97;4938374;29;1226;-50
2022/10/04 02:06:37;;;;;;;;;;;;;;;15.93;56.40;100695.75;4921717;29;1130;-50
2022/10/04 02:09:06;;;;;;;;;;;;;;;17.00;54.10;100692.22;4921554;29;1159;-51
2022/10/04 02:11:32;;;;;;;;;;;;;;;19.09;50.49;100684.81;4921199;29;1234;-53
2022/10/04 02:13:57;;;;;;;;;;;;;;;15.33;59.42;100682.38;4922168;29;1159;-53
2022/10/04 02:16:23;;;;;;;;;;;;;;;16.84;51.67;100687.81;4921517;29;1181;-52
2022/10/04 02:18:48;;;;;;;;;;;;;;;18.30;51.97;100682.25;4921260;29;1159;-52
2022/10/04 02:21:15;;;;;;;;;;;;;;;17.58;51.02;100680.72;4922017;29;1983;-54
2022/10/04 02:23:40;;;;;;;;;;;;;;;18.50;51.77;100699.69;4922469;29;1230;-51
2022/10/04 02:26:09;;;;;;;;;;;;;;;15.27;59.81;100699.91;4942393;29;1131;-52
2022/10/04 02:28:35;;;;;;;;;;;;;;;17.73;54.75;100699.06;4941580;29;1162;-53
2022/10/04 02:33:44;;;;;;;;;;;;;;;16.14;56.92;100702.91;4927616;29;1119;-53
2022/10/04 02:36:10;;;;;;;;;;;;;;;17.16;52.76;100703.16;4925002;29;1202;-52
2022/10/04 02:38:41;;;;;;;;;;;;;;;17.69;52.74;100719.19;4925260;29;1151;-53
2022/10/04 02:41:27;;;;;;;;;;;;;;;17.26;50.99;100706.72;4941485;29;906;-50
2022/10/04 02:43:54;;;;;;;;;;;;;;;18.28;52.17;100717.47;4941593;29;1272;-50
2022/10/04 02:46:22;;;;;;;;;;;;;;;17.55;51.53;100717.03;4915056;29;1218;-50
2022/10/04 02:48:48;;;;;;;;;;;;;;;17.30;49.65;100717.94;4921791;29;1210;-50
2022/10/04 02:51:14;;;;;;;;;;;;;;;17.96;50.48;100718.78;4924726;29;1115;-53
2022/10/04 02:53:43;;;;;;;;;;;;;;;17.73;51.10;100728.50;4941958;29;1257;-52
2022/10/04 02:56:11;;;;;;;;;;;;;;;17.46;49.38;100735.22;4927785;29;1167;-53
2022/10/04 02:58:36;;;;;;;;;;;;;;;17.75;50.11;100731.78;4951689;29;1189;-50
2022/10/04 03:01:01;;;;;;;;;;;;;;;17.85;50.14;100720.75;4936471;29;1175;-51
2022/10/04 03:03:28;;;;;;;;;;;;;;;17.54;49.25;100725.56;4924539;29;1910;-50
2022/10/04 03:05:53;;;;;;;;;;;;;;;17.42;47.94;100721.22;4941805;29;1186;-49
2022/10/04 03:08:19;;;;;;;;;;;;;;;18.39;49.53;100741.06;4941611;29;1174;-52
2022/10/04 03:10:44;;;;;;;;;;;;;;;17.72;49.36;100732.34;4940994;29;1107;-47
2022/10/04 03:13:11;;;;;;;;;;;;;;;18.66;49.77;100736.97;4941681;29;1155;-51
2022/10/04 03:15:37;;;;;;;;;;;;;;;14.98;59.20;100750.38;4941360;29;1091;-47
2022/10/04 03:18:02;;;;;;;;;;;;;;;16.69;51.52;100757.28;4924087;29;1163;-50
2022/10/04 03:20:28;;;;;;;;;;;;;;;18.03;51.33;100757.78;4924413;29;1131;-52
2022/10/04 03:22:54;;;;;;;;;;;;;;;15.60;57.45;100758.97;4941019;29;1906;-52
2022/10/04 03:25:26;;;;;;;;;;;;;;;16.04;54.60;100775.03;4940841;29;1170;-49
2022/10/04 03:27:53;;;;;;;;;;;;;;;18.17;52.28;100776.44;4924410;29;1194;-53
2022/10/04 03:30:19;;;;;;;;;;;;;;;17.40;51.46;100767.41;4922354;29;1190;-50
2022/10/04 03:32:45;;;;;;;;;;;;;;;18.16;51.65;100772.88;4923090;29;1167;-47
2022/10/04 03:35:19;;;;;;;;;;;;;;;15.52;58.21;100779.47;4923868;29;1238;-47
2022/10/04 03:37:45;;;;;;;;;;;;;;;17.11;55.44;100780.94;4923920;29;1159;-50
2022/10/04 03:40:10;;;;;;;;;;;;;;;18.59;52.15;100781.41;4940665;29;1139;-50
2022/10/04 03:42:36;;;;;;;;;;;;;;;14.82;60.39;100785.03;4941015;29;1991;-50
2022/10/04 03:45:03;;;;;;;;;;;;;;;18.26;53.98;100783.00;4929166;29;1542;-50
2022/10/04 03:47:30;;;;;;;;;;;;;;;15.87;59.27;100799.13;4924199;29;1059;-50
2022/10/04 03:50:01;;;;;;;;;;;;;;;16.06;55.79;100794.81;4918115;29;1008;-52
2022/10/04 03:52:29;;;;;;;;;;;;;;;17.87;54.85;100798.31;4917685;29;1111;-49
2022/10/04 03:54:56;;;;;;;;;;;;;;;17.35;52.63;100803.16;4940659;29;1189;-50
2022/10/04 03:57:22;;;;;;;;;;;;;;;17.13;50.67;100794.41;4917020;29;1201;-51
2022/10/04 03:59:47;;;;;;;;;;;;;;;17.02;49.86;100802.63;4932553;29;1289;-49
2022/10/04 04:02:42;;;;;;;;;;;;;;;18.08;51.97;100810.06;4940061;29;1978;-47
2022/10/04 04:05:10;;;;;;;;;;;;;;;17.53;50.87;100820.13;4931073;29;1351;-48
2022/10/04 04:07:37;;;;;;;;;;;;;;;18.52;52.09;100824.13;4923451;29;1111;-46
2022/10/04 04:10:04;;;;;;;;;;;;;;;15.52;59.35;100833.47;4940619;29;1072;-49
2022/10/04 04:13:01;;;;;;;;;;;;;;;17.44;56.45;100828.94;4940373;29;1115;-48
2022/10/04 04:15:28;;;;;;;;;;;;;;;17.31;56.82;100823.22;4908149;29;1166;-48
2022/10/04 04:17:54;;;;;;;;;;;;;;;16.06;59.54;100827.72;4923245;29;913;-49
2022/10/04 04:20:19;;;;;;;;;;;;;;;18.85;53.88;100827.22;4923373;29;1159;-49
2022/10/04 04:22:47;;;;;;;;;;;;;;;15.33;60.83;100831.16;4939951;29;1902;-51
2022/10/04 04:25:13;;;;;;;;;;;;;;;17.89;57.37;100837.38;4923063;29;1218;-46
2022/10/04 04:27:39;;;;;;;;;;;;;;;18.30;55.75;100839.13;4940433;29;1190;-48
2022/10/04 04:30:05;;;;;;;;;;;;;;;15.77;61.42;100851.97;4940134;29;981;-51
2022/10/04 04:32:39;;;;;;;;;;;;;;;18.79;55.28;100856.72;4939411;29;1464;-49
2022/10/04 04:35:09;;;;;;;;;;;;;;;15.50;61.12;100863.03;4939896;29;1178;-50
2022/10/04 04:37:34;;;;;;;;;;;;;;;18.00;57.87;100862.13;4940165;29;1209;-51
2022/10/04 04:40:20;;;;;;;;;;;;;;;18.66;55.38;100852.66;4939605;29;1151;-49
2022/10/04 04:42:46;;;;;;;;;;;;;;;15.99;59.52;100871.03;4929476;29;1906;-50
2022/10/04 04:45:15;;;;;;;;;;;;;;;18.64;56.17;100865.91;4939651;29;1178;-49
2022/10/04 04:47:42;;;;;;;;;;;;;;;15.12;62.01;100884.13;4939553;29;1115;-50
2022/10/04 04:50:07;;;;;;;;;;;;;;;17.91;58.40;100881.13;4922495;29;1155;-49
2022/10/04 04:52:33;;;;;;;;;;;;;;;18.18;56.71;100882.69;4940709;29;1843;-51
2022/10/04 04:54:58;;;;;;;;;;;;;;;15.68;61.01;100890.03;4937124;29;1846;-49
2022/10/04 04:57:24;;;;;;;;;;;;;;;18.07;57.26;100890.16;4938420;29;2198;-49
2022/10/04 04:59:53;;;;;;;;;;;;;;;15.90;60.78;100889.91;4934434;29;2061;-50
2022/10/04 05:02:33;;;;;;;;;;;;;;;17.02;60.58;100896.03;4920936;29;2318;-47
2022/10/04 05:05:31;;;;;;;;;;;;;;;18.82;54.95;100883.69;4938150;29;2264;-50
2022/10/04 05:08:18;;;;;;;;;;;;;;;15.59;60.25;100897.09;4918718;29;1918;-48
2022/10/04 05:11:04;;;;;;;;;;;;;;;18.60;56.25;100892.38;4938696;29;1162;-50
2022/10/04 05:13:40;;;;;;;;;;;;;;;14.70;64.54;100891.13;4928582;29;1076;-51
2022/10/04 05:16:16;;;;;;;;;;;;;;;18.50;56.80;100892.44;4938920;29;1138;-52
2022/10/04 05:18:42;;;;;;;;;;;;;;;16.14;60.32;100891.41;4939355;29;936;-48
2022/10/04 05:21:24;;;;;;;;;;;;;;;17.13;60.89;100902.38;4934579;29;1191;-49
2022/10/04 05:23:50;;;;;;;;;;;;;;;18.84;54.73;100899.94;4922056;29;1099;-49
2022/10/04 05:26:16;;;;;;;;;;;;;;;14.83;63.24;100903.56;4939030;29;1072;-45
2022/10/04 05:28:41;;;;;;;;;;;;;;;18.30;56.96;100913.47;4924064;29;1227;-51
2022/10/04 05:31:39;;;;;;;;;;;;;;;16.05;60.06;100908.34;4914975;29;1193;-52
2022/10/04 05:34:06;;;;;;;;;;;;;;;17.76;58.90;100918.53;4887746;29;1175;-48
2022/10/04 05:36:35;;;;;;;;;;;;;;;18.24;55.66;100917.31;4917519;29;1170;-48
2022/10/04 05:39:19;;;;;;;;;;;;;;;16.79;60.48;100922.06;4938806;29;2641;-52
2022/10/04 05:41:50;;;;;;;;;;;;;;;17.44;57.51;100927.91;4943281;29;1903;-50
2022/10/04 05:44:22;;;;;;;;;;;;;;;17.40;56.86;100920.50;4919521;29;1084;-47
2022/10/04 05:46:48;;;;;;;;;;;;;;;17.19;57.19;100925.16;4935372;29;1036;-48
2022/10/04 05:49:13;;;;;;;;;;;;;;;17.10;57.00;100928.47;4938657;29;1091;-49
2022/10/04 05:51:54;;;;;;;;;;;;;;;17.05;56.67;100933.94;4921238;29;1131;-49
2022/10/04 05:54:21;;;;;;;;;;;;;;;16.92;56.70;100943.53;4921405;29;919;-50
2022/10/04 05:56:55;;;;;;;;;;;;;;;16.92;56.00;100946.28;4938510;29;1170;-48
2022/10/04 05:59:21;;;;;;;;;;;;;;;16.77;56.26;100947.06;4941140;29;1134;-48
2022/10/04 06:01:59;;;;;;;;;;;;;;;16.75;56.21;100954.72;4948265;29;1899;-47
2022/10/04 06:04:28;;;;;;;;;;;;;;;16.64;56.13;100947.56;4925902;29;1123;-46
2022/10/04 06:07:01;;;;;;;;;;;;;;;16.57;56.17;100952.50;4942170;29;1062;-50
2022/10/04 06:09:27;;;;;;;;;;;;;;;16.47;56.33;100960.69;4925590;29;1961;-46
2022/10/04 06:12:06;;;;;;;;;;;;;;;16.47;55.97;100946.97;4942459;29;932;-48
2022/10/04 06:14:37;;;;;;;;;;;;;;;16.40;56.08;100953.50;4925064;29;1186;-50
2022/10/04 06:17:12;;;;;;;;;;;;;;;16.30;56.12;100948.00;4942399;29;1099;-45
2022/10/04 06:19:56;;;;;;;;;;;;;;;16.31;55.90;100954.28;4942309;29;1166;-48
2022/10/04 06:22:22;;;;;;;;;;;;;;;16.23;56.20;100963.88;4942318;29;1902;-49
2022/10/04 06:24:52;;;;;;;;;;;;;;;16.18;55.91;100950.13;4942099;29;1183;-46
2022/10/04 06:27:20;;;;;;;;;;;;;;;16.18;55.67;100961.91;4943016;29;1138;-53
2022/10/04 06:29:50;;;;;;;;;;;;;;;16.10;55.78;100958.84;4955152;29;1217;-56
2022/10/04 06:32:34;;;;;;;;;;;;;;;16.00;56.00;100965.09;4925000;29;1131;-56
2022/10/04 06:35:03;;;;;;;;;;;;;;;16.52;56.07;100967.03;4928738;29;1158;-55
2022/10/04 06:37:43;;;;;;;;;;;;;;;17.45;55.06;100970.81;4941999;29;1992;-55
2022/10/04 06:40:28;;;;;;;;;;;;;;;16.68;56.62;100975.31;4929331;29;1249;-54
2022/10/04 06:43:12;;;;;;;;;;;;;;;16.46;56.63;100981.00;4924238;29;1969;-55
2022/10/04 06:45:38;;;;;;;;;;;;;;;16.34;56.61;100976.56;4941409;29;1123;-56
2022/10/04 06:48:22;;;;;;;;;;;;;;;16.20;56.68;100976.22;4941186;29;1095;-55
2022/10/04 06:50:51;;;;;;;;;;;;;;;16.13;56.52;100974.78;4941323;29;1154;-56
2022/10/04 06:53:23;;;;;;;;;;;;;;;17.35;55.18;100970.81;4925294;29;1139;-55
2022/10/04 06:55:52;;;;;;;;;;;;;;;16.84;56.38;100979.75;4908792;29;1128;-53
2022/10/04 06:58:18;;;;;;;;;;;;;;;16.51;56.80;100970.00;4924590;29;1222;-52
2022/10/04 07:00:50;;;;;;;;;;;;;;;16.38;56.73;100972.19;4937178;29;1111;-54
2022/10/04 07:03:18;;;;;;;;;;;;;;;16.26;56.70;100979.81;4930323;29;1984;-56
2022/10/04 07:05:48;;;;;;;;;;;;;;;16.19;56.64;100980.03;4924840;29;1079;-55
2022/10/04 07:08:31;;;;;;;;;;;;;;;16.12;56.32;100976.69;4914584;29;1851;-52
2022/10/04 07:11:15;;;;;;;;;;;;;;;17.48;54.67;100987.88;4924769;29;1171;-56
2022/10/04 07:14:03;;;;;;;;;;;;;;;16.68;56.58;100987.13;4941475;29;1114;-53
2022/10/04 07:16:32;;;;;;;;;;;;;;;16.45;56.76;100988.38;4933293;29;1807;-54
2022/10/04 07:18:57;;;;;;;;;;;;;;;16.32;56.78;100986.97;4940992;29;893;-55
2022/10/04 07:21:25;;;;;;;;;;;;;;;16.21;56.60;100988.81;4941009;29;1942;-55
2022/10/04 07:23:55;;;;;;;;;;;;;;;16.23;56.78;100996.81;4940942;29;1150;-55
2022/10/04 07:26:29;;;;;;;;;;;;;;;17.59;54.43;100993.06;4924006;29;1147;-54
2022/10/04 07:31:40;;;;;;;;;;;;;;;16.50;56.96;101006.81;4926266;29;834;-58
2022/10/04 07:34:24;;;;;;;;;;;;;;;16.38;56.62;101015.25;4940904;29;1091;-56
2022/10/04 07:36:51;;;;;;;;;;;;;;;16.26;56.78;101007.25;4940606;29;1075;-54
2022/10/04 07:39:40;;;;;;;;;;;;;;;16.18;56.46;101018.72;4923468;29;2104;-57
2022/10/04 07:42:13;;;;;;;;;;;;;;;16.43;56.62;101010.63;4913227;29;1983;-53
2022/10/04 07:44:39;;;;;;;;;;;;;;;17.55;54.53;101015.91;4940606;29;1138;-56
2022/10/04 07:47:18;;;;;;;;;;;;;;;16.75;56.53;101025.31;4940764;29;1119;-54
2022/10/04 07:49:43;;;;;;;;;;;;;;;16.47;56.73;101021.91;4923790;29;1076;-56
2022/10/04 07:52:15;;;;;;;;;;;;;;;16.33;56.88;101029.78;4940402;29;1122;-56
2022/10/04 07:55:00;;;;;;;;;;;;;;;16.26;56.48;101020.97;4948938;29;1162;-56
2022/10/04 07:57:29;;;;;;;;;;;;;;;16.12;56.47;101017.84;4940499;29;1084;-56
2022/10/04 08:00:13;;;;;;;;;;;;;;;16.71;56.19;101018.72;4925397;29;1178;-56
2022/10/04 08:02:39;;;;;;;;;;;;;;;17.35;54.99;101022.19;4936147;29;1902;-54
2022/10/04 08:05:24;;;;;;;;;;;;;;;16.73;56.46;101024.75;4947809;29;1154;-56
2022/10/04 08:07:52;;;;;;;;;;;;;;;16.48;56.98;101022.72;4939710;29;1965;-57
2022/10/04 08:10:22;;;;;;;;;;;;;;;16.36;56.88;101023.75;4939711;29;1157;-56
2022/10/04 08:12:47;;;;;;;;;;;;;;;16.20;56.89;101024.75;4939781;29;1119;-55
2022/10/04 08:15:12;;;;;;;;;;;;;;;16.66;56.39;101022.28;4939709;29;1134;-55
2022/10/04 08:17:56;;;;;;;;;;;;;;;17.54;54.79;101014.25;4939829;29;1107;-57
2022/10/04 08:20:30;;;;;;;;;;;;;;;16.77;56.52;101020.38;4939878;29;1193;-54
2022/10/04 08:22:58;;;;;;;;;;;;;;;16.55;56.39;101026.03;4922010;29;1981;-56
2022/10/04 08:25:23;;;;;;;;;;;;;;;16.40;56.53;101026.81;4939726;29;1180;-55
2022/10/04 08:30:43;;;;;;;;;;;;;;;16.20;56.64;101030.22;4939541;29;1107;-52
2022/10/04 08:33:17;;;;;;;;;;;;;;;16.68;56.14;101033.78;4923118;29;1155;-53
2022/10/04 08:35:55;;;;;;;;;;;;;;;17.26;55.45;101036.50;4939619;29;1353;-58
2022/10/04 08:38:20;;;;;;;;;;;;;;;16.69;56.50;101043.69;4939714;29;1881;-55
2022/10/04 08:40:48;;;;;;;;;;;;;;;16.49;56.49;101038.09;4939739;29;1158;-58
2022/10/04 08:43:18;;;;;;;;;;;;;;;16.36;56.76;101045.72;4939484;29;1907;-57
2022/10/04 08:46:03;;;;;;;;;;;;;;;16.29;56.49;101050.59;4939237;29;1190;-59
2022/10/04 08:48:29;;;;;;;;;;;;;;;16.16;56.49;101051.06;4939327;29;1138;-58
2022/10/04 08:51:13;;;;;;;;;;;;;;;17.45;54.92;101034.03;4939570;29;1376;-56
2022/10/04 08:53:45;;;;;;;;;;;;;;;16.89;56.10;101034.72;4939205;29;1091;-58
2022/10/04 08:56:10;;;;;;;;;;;;;;;16.56;56.75;101046.91;4926892;29;913;-58
2022/10/04 08:58:36;;;;;;;;;;;;;;;16.40;56.45;101052.31;4938409;29;1085;-58
2022/10/04 09:01:07;;;;;;;;;;;;;;;16.32;56.54;101050.06;4942834;29;1115;-56
2022/10/04 09:03:48;;;;;;;;;;;;;;;16.18;56.65;101049.72;4951930;29;1910;-56
2022/10/04 09:06:49;;;;;;;;;;;;;;;16.69;56.33;101054.69;4927096;29;1460;-56
2022/10/04 09:09:17;;;;;;;;;;;;;;;17.24;55.07;101059.84;4861513;29;1908;-57
2022/10/04 09:11:57;;;;;;;;;;;;;;;16.72;56.13;101064.31;4919194;29;1120;-55
2022/10/04 09:14:41;;;;;;;;;;;;;;;16.49;56.68;101054.56;4938683;29;1230;-55
2022/10/04 09:17:13;;;;;;;;;;;;;;;16.33;56.59;101062.72;4939170;29;1091;-57
2022/10/04 09:19:45;;;;;;;;;;;;;;;17.26;55.21;101063.97;4938737;29;976;-53
2022/10/04 09:22:18;;;;;;;;;;;;;;;17.12;55.56;101073.00;4921523;29;1907;-49
2022/10/04 09:24:53;;;;;;;;;;;;;;;16.70;56.35;101061.78;4938542;29;1072;-56
2022/10/04 09:27:38;;;;;;;;;;;;;;;16.55;56.35;101069.97;4938489;29;1487;-57
2022/10/04 09:30:20;;;;;;;;;;;;;;;16.38;56.59;101068.25;4939086;29;1161;-55
2022/10/04 09:33:01;;;;;;;;;;;;;;;16.31;56.30;101064.88;4938775;29;1067;-53
2022/10/04 09:35:28;;;;;;;;;;;;;;;16.19;56.22;101067.00;4922067;29;1202;-56
2022/10/04 09:38:02;;;;;;;;;;;;;;;16.42;56.09;101063.88;4938707;29;1972;-55
2022/10/04 09:40:46;;;;;;;;;;;;;;;17.65;54.09;101065.41;4938768;29;1135;-58
2022/10/04 09:43:30;;;;;;;;;;;;;;;16.81;56.23;101072.84;4938231;29;1906;-57
2022/10/04 09:45:59;;;;;;;;;;;;;;;16.55;56.43;101067.22;4938609;29;1103;-57
2022/10/04 09:48:24;;;;;;;;;;;;;;;16.37;56.93;101074.81;4938431;29;1166;-54
2022/10/04 09:50:55;;;;;;;;;;;;;;;16.33;56.59;101079.19;4938212;29;1107;-55
2022/10/04 09:53:27;;;;;;;;;;;;;;;16.69;56.22;101081.28;4938309;29;1151;-56
2022/10/04 09:55:54;;;;;;;;;;;;;;;17.38;54.96;101082.16;4938402;29;844;-55
2022/10/04 09:58:31;;;;;;;;;;;;;;;16.71;56.38;101079.94;4938942;29;1166;-56
2022/10/04 10:01:07;;;;;;;;;;;;;;;16.56;56.49;101088.09;4942384;29;1078;-53
2022/10/04 10:03:42;;;;;;;;;;;;;;;16.40;56.61;101074.28;4938359;29;1970;-56
2022/10/04 10:06:12;;;;;;;;;;;;;;;16.29;56.26;101079.97;4922111;29;1127;-58
2022/10/04 10:08:56;;;;;;;;;;;;;;;16.16;56.50;101089.47;4938654;29;1996;-58
2022/10/04 10:14:28;;;;;;;;;;;;;;;17.17;55.15;101090.31;4938084;29;1174;-57
2022/10/04 10:17:06;;;;;;;;;;;;;;;16.64;56.42;101092.25;4937667;29;1083;-57
2022/10/04 10:19:32;;;;;;;;;;;;;;;16.48;56.38;101091.34;4938191;29;1151;-56
2022/10/04 10:22:16;;;;;;;;;;;;;;;16.37;56.46;101093.22;4937332;29;1910;-58
2022/10/04 10:24:45;;;;;;;;;;;;;;;16.26;56.37;101095.06;4938139;29;1103;-61
2022/10/04 10:27:18;;;;;;;;;;;;;;;16.85;55.87;101104.19;4938261;29;1115;-59
2022/10/04 10:29:44;;;;;;;;;;;;;;;17.21;55.26;101101.63;4938458;29;1201;-59
2022/10/04 10:32:09;;;;;;;;;;;;;;;16.67;56.41;101100.78;4938043;29;927;-57
2022/10/04 10:34:41;;;;;;;;;;;;;;;16.52;56.34;101093.31;4937900;29;1123;-55
2022/10/04 10:37:08;;;;;;;;;;;;;;;16.35;56.56;101100.88;4938681;29;1123;-55
2022/10/04 10:39:53;;;;;;;;;;;;;;;16.27;56.30;101102.19;4939860;29;2094;-57
2022/10/04 10:42:37;;;;;;;;;;;;;;;16.18;56.51;101098.28;4947757;29;1906;-58
2022/10/04 10:45:22;;;;;;;;;;;;;;;17.70;54.17;101103.09;4922201;29;1151;-59
2022/10/04 10:47:52;;;;;;;;;;;;;;;16.84;56.03;101102.53;4941507;29;1122;-59
2022/10/04 10:50:24;;;;;;;;;;;;;;;16.55;56.60;101103.75;4941871;29;1056;-60
2022/10/04 10:52:53;;;;;;;;;;;;;;;16.38;56.78;101098.44;4941491;29;1127;-53
2022/10/04 10:55:20;;;;;;;;;;;;;;;16.27;56.76;101106.84;4941344;29;1190;-53
2022/10/04 10:57:46;;;;;;;;;;;;;;;16.18;56.37;101095.53;4941070;29;1205;-54
2022/10/04 11:00:14;;;;;;;;;;;;;;;16.99;55.73;101110.03;4944993;29;1155;-56
2022/10/04 11:03:10;;;;;;;;;;;;;;;17.27;55.26;101109.59;4930135;29;1902;-58
2022/10/04 11:05:35;;;;;;;;;;;;;;;16.56;56.67;101097.16;4919195;29;1340;-55
2022/10/04 11:08:01;;;;;;;;;;;;;;;16.45;56.68;101100.91;4941281;29;1882;-54
2022/10/04 11:10:40;;;;;;;;;;;;;;;16.36;56.55;101105.28;4941151;29;1122;-55
2022/10/04 11:13:38;;;;;;;;;;;;;;;16.29;56.54;101107.41;4924774;29;1084;-57
2022/10/04 11:16:04;;;;;;;;;;;;;;;16.14;56.49;101102.63;4904498;29;1424;-57
2022/10/04 11:18:32;;;;;;;;;;;;;;;17.27;55.02;101115.06;4941496;29;1209;-57
2022/10/04 11:21:16;;;;;;;;;;;;;;;17.05;55.74;101112.53;4941041;29;1095;-55
2022/10/04 11:23:45;;;;;;;;;;;;;;;16.58;56.79;101105.13;4941358;29;1915;-53
2022/10/04 11:26:17;;;;;;;;;;;;;;;16.41;56.65;101116.25;4941078;29;1190;-52
2022/10/04 11:28:48;;;;;;;;;;;;;;;16.33;56.50;101114.84;4941152;29;1138;-54
2022/10/04 11:31:26;;;;;;;;;;;;;;;16.20;56.66;101113.41;4927193;29;1159;-54
2022/10/04 11:34:11;;;;;;;;;;;;;;;17.24;55.65;101125.81;4949018;29;1122;-56
2022/10/04 11:37:05;;;;;;;;;;;;;;;16.97;55.85;101126.78;4940257;29;1253;-54
2022/10/04 11:40:07;;;;;;;;;;;;;;;16.52;56.72;101120.75;4887993;29;2146;-57
2022/10/04 11:42:38;;;;;;;;;;;;;;;16.35;56.74;101125.56;4881703;29;1911;-49
2022/10/04 11:45:13;;;;;;;;;;;;;;;16.25;56.69;101123.56;4928876;29;1498;-52
2022/10/04 11:47:44;;;;;;;;;;;;;;;16.20;56.45;101129.00;4940485;29;1067;-58
2022/10/04 11:50:22;;;;;;;;;;;;;;;17.35;55.24;101137.63;4940554;29;1233;-53
2022/10/04 11:52:57;;;;;;;;;;;;;;;17.03;55.81;101133.97;4923724;29;1182;-55
2022/10/04 11:55:25;;;;;;;;;;;;;;;16.64;56.47;101131.53;4939899;29;1056;-55
2022/10/04 11:58:09;;;;;;;;;;;;;;;16.42;56.91;101132.50;4933305;29;1170;-54
2022/10/04 12:00:54;;;;;;;;;;;;;;;16.31;56.68;101128.00;4944317;29;1086;-56
2022/10/04 12:03:22;;;;;;;;;;;;;;;16.19;56.85;101127.38;4951573;29;1918;-56
2022/10/04 12:06:00;;;;;;;;;;;;;;;16.83;56.36;101131.06;4942410;29;1106;-56
2022/10/04 12:08:28;;;;;;;;;;;;;;;17.30;55.17;101135.72;4939900;29;1905;-56
2022/10/04 12:11:00;;;;;;;;;;;;;;;16.67;56.54;101141.97;4923352;29;1233;-56
2022/10/04 12:13:37;;;;;;;;;;;;;;;16.47;56.90;101134.44;4940676;29;1186;-56
2022/10/04 12:16:09;;;;;;;;;;;;;;;16.32;56.94;101135.16;4940275;29;1119;-53
2022/10/04 12:18:52;;;;;;;;;;;;;;;16.24;56.79;101124.66;4939466;29;1154;-57
2022/10/04 12:21:17;;;;;;;;;;;;;;;16.17;57.09;101127.66;4923292;29;1183;-56
2022/10/04 12:24:04;;;;;;;;;;;;;;;17.60;54.81;101123.97;4939948;29;1911;-56
2022/10/04 12:26:49;;;;;;;;;;;;;;;16.79;56.65;101127.19;4940100;29;1095;-54
2022/10/04 12:29:33;;;;;;;;;;;;;;;16.52;56.95;101131.72;4939588;29;1209;-55
2022/10/04 12:31:59;;;;;;;;;;;;;;;16.37;57.06;101135.19;4939595;29;1079;-55
2022/10/04 12:34:36;;;;;;;;;;;;;;;16.22;57.08;101133.16;4922936;29;1135;-56
2022/10/04 12:37:01;;;;;;;;;;;;;;;17.64;54.70;101131.69;4921530;29;1407;-55
2022/10/04 12:39:30;;;;;;;;;;;;;;;16.94;56.26;101132.81;4953253;29;2209;-56
2022/10/04 12:42:05;;;;;;;;;;;;;;;16.56;56.91;101143.00;4939777;29;1914;-54
2022/10/04 12:44:31;;;;;;;;;;;;;;;16.47;56.75;101147.34;4940124;29;1095;-56
2022/10/04 12:47:15;;;;;;;;;;;;;;;16.38;56.62;101141.50;4939671;29;1119;-56
2022/10/04 12:49:59;;;;;;;;;;;;;;;16.25;56.84;101142.78;4939943;29;1151;-55
2022/10/04 12:52:26;;;;;;;;;;;;;;;17.20;55.78;101141.19;4939525;29;1186;-56
2022/10/04 12:54:52;;;;;;;;;;;;;;;17.13;55.80;101148.84;4923038;29;1131;-54
2022/10/04 12:57:17;;;;;;;;;;;;;;;16.65;56.71;101141.41;4939529;29;937;-56
2022/10/04 13:00:02;;;;;;;;;;;;;;;16.46;56.86;101148.44;4942831;29;1190;-55
2022/10/04 13:02:31;;;;;;;;;;;;;;;16.25;57.06;101146.34;4932537;29;1906;-56
2022/10/04 13:04:57;;;;;;;;;;;;;;;16.22;56.70;101143.31;4948158;29;1126;-56
2022/10/04 13:07:25;;;;;;;;;;;;;;;16.11;56.70;101144.31;4938910;29;2110;-56
2022/10/04 13:09:55;;;;;;;;;;;;;;;17.16;56.07;101146.38;4939118;29;1130;-52
2022/10/04 13:12:21;;;;;;;;;;;;;;;17.07;56.17;101143.31;4939700;29;1182;-54
2022/10/04 13:14:50;;;;;;;;;;;;;;;16.65;57.03;101144.16;4939713;29;1092;-54
2022/10/04 13:17:41;;;;;;;;;;;;;;;16.40;57.00;101144.81;4939457;29;1333;-55
2022/10/04 13:20:19;;;;;;;;;;;;;;;16.28;57.16;101142.25;4916625;29;1185;-55
2022/10/04 13:22:50;;;;;;;;;;;;;;;16.19;56.91;101143.84;4922377;29;1927;-53
2022/10/04 13:25:25;;;;;;;;;;;;;;;16.91;56.51;101149.81;4939414;29;1111;-55